默认 日期 大小 文件数 浏览量 最新下载 xml
get back磁力链接相关资源由用户搜索指令自动获取,结果来源于网络,本站不存储任何资料,亦不承担任何责任,请于24小时内删除,搜索到876个磁力,用时3ms。
    ... De Nazca - Step Back To Get Up - 02 Get It On.flac": 54266743 ... "Chicos De Nazca - Step Back To Get Up - 01 Almost There.flac ... "Chicos De Nazca - Step Back To Get Up - 09 Belongs Forever.flac ... "Chicos De Nazca - Step Back To Get Up - 03 Between Those Different ...
创建时间: 2019-01-03 23:29:58 大小:442.42 MB 文件数量:10 热度:6 最近下载:2023-04-24 21:40:10
    {"RARBG.com.txt": 34, "brm.15.11.26.delilah.blue.comes.back.to.get.fucked.by.power.tools.mp4": 1795980227, "brm.15.11.26.delilah.blue.comes.back.to.get.fucked.by.power.tools.nfo": 5223}
创建时间: 2019-01-04 08:13:00 大小:1.67 GB 文件数量:3 热度:31 最近下载:2025-09-21 15:28:02
    {"1.jpg": 118375, "2.jpg": 98667, "screen.jpg": 184181, "Homemade porn 69 - Fucking porn made in our homes!.url": 52, "Silvia Dellai is back to get fucked by 4 black bulls IV099 HD 720p.mp4": 1858888211}
创建时间: 2019-01-04 12:50:32 大小:1.73 GB 文件数量:5 热度:19 最近下载:2025-06-02 14:47:02
    {"glazedtotherim.wmv": 1285921113}
创建时间: 2019-01-04 23:23:38 大小:1.2 GB 文件数量:1 热度:19 最近下载:2025-09-11 04:54:02
    ... }, "Front.jpg": 816763, "Get Way Back - A Tribute To Percy Mayfield ... 474, "Amos Garrett - Get Way Back - A Tribute To Percy ... 1549, "Amos Garrett - Get Way Back - A Tribute To Percy Mayfield ... 3605, "Amos Garrett - Get Way Back - A Tribute To Percy Mayfield ...
创建时间: 2019-01-05 02:24:29 大小:279.67 MB 文件数量:9 热度:5 最近下载:2025-03-20 21:02:01
    {"Get data back for FAT and NTFS v3. ...
创建时间: 2019-01-05 20:42:56 大小:5.13 MB 文件数量:5 热度:5 最近下载:2022-11-12 10:52:11
    ... , "03 Juelz Santana - Ol Thang Back Ft. Jadakiss Dave East Redman ...
创建时间: 2019-01-10 16:44:31 大小:88.96 MB 文件数量:17 热度:4 最近下载:2022-11-12 10:40:46
    {"RARBG.com.txt": 34, "sexo-orm-sweetclaire-121121.mp4": 1082290487, "sexo-orm-sweetclaire-121121.nfo": 1349}
创建时间: 2019-01-14 14:11:09 大小:1.01 GB 文件数量:3 热度:9 最近下载:2024-12-30 21:49:02
    {"Health & Fitness UK.tgz": 63872152, "Torrent downloaded from demonoid.ph.txt": 46, "Torrent downloaded from AhaShare.com.txt": 58, "Torrent Downloaded From ExtraTorrent.cc.txt": 352}
创建时间: 2019-01-15 17:01:48 大小:60.91 MB 文件数量:4 热度:10 最近下载:2025-07-10 18:18:02
    {"Downloaded from www.ETTV.tv .txt": 278, "Get.The.Sucker.Back.2018.HDRip.XviD.AC3-EVO.nfo": 659, "Get.The.Sucker.Back.2018.HDRip.XviD.AC3-EVO[EtMovies].avi": 1385994554}
创建时间: 2019-01-19 20:22:18 大小:1.29 GB 文件数量:3 热度:5 最近下载:2022-11-12 10:19:07
    {"Get Data Back 4.32-setup.exe": 41220143}
创建时间: 2019-01-22 19:39:05 大小:39.31 MB 文件数量:1 热度:3 最近下载:2022-11-12 10:38:47
    {"poster.jpg": 38077, "screens.jpg": 188168, "RARBG.com.txt": 33, "GNDBondage.2015.08.24.Summer.Cummings.Left.Bound.And.Gagged.I.Need.To.Get.To.The.Telephone.Before.He.Gets.Back.XXX.HR.MP4.hUSHhUSH.mp4": 427200504}
创建时间: 2019-01-24 05:47:16 大小:407.63 MB 文件数量:4 热度:8 最近下载:2025-03-07 04:39:01
    {"[TrickySpa] Tiffany Brookes (Help Me Get My Car Back - 09.09.15) rq (400p).mp4": 289867092}
创建时间: 2019-01-29 00:47:36 大小:276.44 MB 文件数量:1 热度:11 最近下载:2025-09-03 11:44:04
    {"FAT": {"Keygen-BRD": {"brd.nfo": 14207, "Keygen.exe": 66560}, "Runtime GetDataBack.exe": 2768896}, "NTFS": {"Keygen-BRD": {"brd.nfo": 14187, "Keygen.exe": 66560}, "Runtime GetDataBack.exe": 2740224}, "readme.txt": 3152}
创建时间: 2019-01-29 20:05:45 大小:5.41 MB 文件数量:7 热度:6 最近下载:2022-11-12 10:44:07
    {"READ THIS BEFORE OPEN THE FILE.txt": 362, "Men's Fitness USA - November 2013.pdf": 43191573, "TORRENT DOWNLOADED FROM SCENETIME.COM.txt": 328}
创建时间: 2019-01-31 18:59:58 大小:41.19 MB 文件数量:3 热度:10 最近下载:2025-08-03 11:12:04
    {"b-ralfut2.part1.rar": 100000000, "b-ralfut2.part2.rar": 100000000, "b-ralfut2.part3.rar": 100000000, "b-ralfut2.part4.rar": 83109766}
创建时间: 2019-02-01 00:35:09 大小:365.36 MB 文件数量:4 热度:4 最近下载:2022-11-15 20:25:12
    {"Flex USA - Get A Big Back Now.tgz": 151197845, "Torrent downloaded from demonoid.ph.txt": 46, "Torrent downloaded from AhaShare.com.txt": 58, "Torrent Downloaded From ExtraTorrent.cc.txt": 352}
创建时间: 2019-02-01 17:06:37 大小:144.19 MB 文件数量:4 热度:5 最近下载:2022-11-12 10:53:10
    {"Serial.txt": 92, "Forum-PH.org Pocetna strana.URL": 65, "Get Data Back v3.03.013 for FAT and NTFS Setup.exe": 5327872}
创建时间: 2019-02-03 05:50:54 大小:5.08 MB 文件数量:3 热度:15 最近下载:2025-07-30 11:33:07
    ... 1125924, "Amos Garrett - Get Way Back - A Tribute to Percy ... 2325706, "Amos Garrett - Get Way Back - A Tribute to Percy ... 2904612, "Amos Garrett - Get Way Back - A Tribute to Percy ... 7033693, "09 - Amos Garrett - Get Way Back.mp3": 6396306, "04 - Amos ...
创建时间: 2019-02-04 19:09:21 大小:117.29 MB 文件数量:17 热度:5 最近下载:2022-11-12 12:58:12
    {"autorun.url": 1180, "Torrent downloaded from extremlymtorrents.me.txt": 52, "Run time Get Data Back Simple 3.10 + Portable FULL.exe": 17882955}
创建时间: 2019-02-05 21:47:17 大小:17.06 MB 文件数量:3 热度:4 最近下载:2022-11-15 19:49:16